Time;durP1;ratioP1;P1;durP2;ratioP2;P2;SDS_P1;SDS_P2;PMS_P1;PMS_P2;Temp;Humidity;BMP_temperature;BMP_pressure;BME280_temperature;BME280_humidity;BME280_pressure;Samples;Min_cycle;Max_cycle;Signal;HPM_P1;HPM_P2
2022/09/13 00:00:40;;;;;;;1999.90;999.90;;;17.20;99.90;;;;;;5099012;28;20069;-66
2022/09/13 00:03:07;;;;;;;1999.90;999.90;;;17.20;99.90;;;;;;5062386;28;20054;-66
2022/09/13 00:05:33;;;;;;;1999.90;999.90;;;17.20;99.90;;;;;;5090898;28;20039;-66
2022/09/13 00:07:59;;;;;;;1999.90;999.90;;;17.20;99.90;;;;;;5073952;28;20036;-66
2022/09/13 00:10:25;;;;;;;1999.90;999.90;;;17.20;99.90;;;;;;5085304;28;20754;-65
2022/09/13 00:12:51;;;;;;;1999.90;999.90;;;17.20;99.90;;;;;;5068299;28;20039;-65
2022/09/13 00:15:17;;;;;;;1999.90;999.90;;;17.20;99.90;;;;;;5054672;28;20055;-66
2022/09/13 00:17:43;;;;;;;1999.90;999.90;;;17.20;99.90;;;;;;5090315;28;20063;-66
2022/09/13 00:20:09;;;;;;;1999.90;999.90;;;17.10;99.90;;;;;;5070220;28;20095;-66
2022/09/13 00:22:35;;;;;;;1999.90;999.90;;;17.10;99.90;;;;;;5053938;28;20071;-66
2022/09/13 00:25:03;;;;;;;1999.90;999.90;;;17.10;99.90;;;;;;5068107;28;20063;-66
2022/09/13 00:27:29;;;;;;;1999.90;999.90;;;17.10;99.90;;;;;;5053195;28;20035;-66
2022/09/13 00:29:54;;;;;;;1999.90;999.90;;;17.10;99.90;;;;;;5089340;28;20129;-66
2022/09/13 00:32:20;;;;;;;1999.90;999.90;;;17.10;99.90;;;;;;5072485;28;20100;-66
2022/09/13 00:34:45;;;;;;;1999.90;999.90;;;17.10;99.90;;;;;;5055560;28;20067;-65
2022/09/13 00:37:11;;;;;;;1999.90;999.90;;;17.10;99.90;;;;;;5071857;28;20039;-66
2022/09/13 00:39:36;;;;;;;1999.90;999.90;;;17.10;99.90;;;;;;5073702;28;20047;-66
2022/09/13 00:42:02;;;;;;;1999.90;999.90;;;17.10;99.90;;;;;;5070594;28;20438;-66
2022/09/13 00:44:56;;;;;;;1999.90;999.90;;;17.10;99.90;;;;;;5086527;28;20050;-66
2022/09/13 00:47:42;;;;;;;1999.90;999.90;;;17.10;99.90;;;;;;5060086;28;20046;-66
2022/09/13 00:50:27;;;;;;;1999.90;999.90;;;17.10;99.90;;;;;;5067489;28;20052;-66
2022/09/13 00:53:21;;;;;;;1999.90;999.90;;;17.10;99.90;;;;;;5069783;28;20048;-67
2022/09/13 00:55:59;;;;;;;1999.90;999.90;;;17.10;99.90;;;;;;5091729;28;20071;-66
2022/09/13 00:58:31;;;;;;;1999.90;999.90;;;17.10;99.90;;;;;;5059212;28;20043;-66
2022/09/13 01:00:58;;;;;;;1999.90;999.90;;;17.10;99.90;;;;;;5087961;28;20040;-66
2022/09/13 01:03:27;;;;;;;1999.90;999.90;;;17.10;99.90;;;;;;5077334;28;20135;-66
2022/09/13 01:06:02;;;;;;;1999.90;999.90;;;17.00;99.90;;;;;;5077323;28;20043;-66
2022/09/13 01:08:30;;;;;;;1999.90;999.90;;;17.10;99.90;;;;;;5086229;28;20488;-66
2022/09/13 01:10:58;;;;;;;1999.90;999.90;;;17.00;99.90;;;;;;5068951;28;20048;-66
2022/09/13 01:13:27;;;;;;;1999.90;999.90;;;17.00;99.90;;;;;;5064051;28;20035;-66
2022/09/13 01:15:53;;;;;;;1999.90;999.90;;;17.00;99.90;;;;;;5054349;28;20036;-66
2022/09/13 01:18:19;;;;;;;1999.90;999.90;;;17.00;99.90;;;;;;5076593;28;20081;-66
2022/09/13 01:20:53;;;;;;;1999.90;999.90;;;17.00;99.90;;;;;;5046335;28;20071;-66
2022/09/13 01:23:40;;;;;;;1999.90;999.90;;;17.00;99.90;;;;;;5056177;28;20503;-66
2022/09/13 01:26:49;;;;;;;1999.90;999.90;;;17.00;99.90;;;;;;5089239;28;20475;-66
2022/09/13 01:29:33;;;;;;;1999.90;999.90;;;17.00;99.90;;;;;;5066500;28;20050;-66
2022/09/13 01:32:06;;;;;;;1999.90;999.90;;;17.00;99.90;;;;;;5052300;28;20152;-66
2022/09/13 01:35:03;;;;;;;1999.90;999.90;;;17.00;99.90;;;;;;5074215;28;20399;-66
2022/09/13 01:38:07;;;;;;;1999.90;999.90;;;17.10;99.90;;;;;;5081069;28;20043;-66
2022/09/13 01:40:50;;;;;;;1999.90;999.90;;;17.10;99.90;;;;;;5006813;28;20510;-66
2022/09/13 01:43:40;;;;;;;1999.90;999.90;;;17.10;99.90;;;;;;5073335;28;20040;-66
2022/09/13 01:46:57;;;;;;;1999.90;999.90;;;17.10;99.90;;;;;;5066611;28;20041;-66
2022/09/13 01:49:34;;;;;;;1999.90;999.90;;;17.00;99.90;;;;;;4990408;28;20132;-66
2022/09/13 01:52:14;;;;;;;1999.90;999.90;;;17.10;99.90;;;;;;5019598;28;20046;-66
2022/09/13 01:55:05;;;;;;;1999.90;999.90;;;17.10;99.90;;;;;;5022894;28;20041;-66
2022/09/13 01:58:08;;;;;;;1999.90;999.90;;;17.10;99.90;;;;;;5008849;28;20075;-66
2022/09/13 02:00:46;;;;;;;1999.90;999.90;;;17.10;99.90;;;;;;5020148;28;20034;-66
2022/09/13 02:03:20;;;;;;;1999.90;999.90;;;17.00;99.90;;;;;;5012606;28;20473;-66
2022/09/13 02:06:00;;;;;;;1999.90;999.90;;;17.10;99.90;;;;;;5008543;28;20141;-66
2022/09/13 02:08:26;;;;;;;1999.90;999.90;;;17.00;99.90;;;;;;5013579;28;20418;-66
2022/09/13 02:11:04;;;;;;;1999.90;999.90;;;17.00;99.90;;;;;;5005770;28;20468;-66
2022/09/13 02:13:35;;;;;;;1999.90;999.90;;;16.90;99.90;;;;;;5008443;28;20037;-66
2022/09/13 02:16:09;;;;;;;1999.90;999.90;;;17.00;99.90;;;;;;4997904;28;20088;-66
2022/09/13 02:18:38;;;;;;;1999.90;999.90;;;16.90;99.90;;;;;;5008809;28;20497;-66
2022/09/13 02:21:20;;;;;;;1999.90;999.90;;;16.90;99.90;;;;;;4998304;28;20057;-66
2022/09/13 02:23:58;;;;;;;1999.90;999.90;;;16.90;99.90;;;;;;5023522;28;20045;-66
2022/09/13 02:26:26;;;;;;;1999.90;999.90;;;16.90;99.90;;;;;;5077786;28;20039;-66
2022/09/13 02:28:57;;;;;;;1999.90;999.90;;;16.90;99.90;;;;;;5086754;28;20047;-66
2022/09/13 02:31:34;;;;;;;1999.90;999.90;;;16.90;99.90;;;;;;5091394;28;20407;-66
2022/09/13 02:34:05;;;;;;;1999.90;999.90;;;16.90;99.90;;;;;;5068301;28;20044;-66
2022/09/13 02:36:35;;;;;;;1999.90;999.90;;;16.90;99.90;;;;;;5073058;28;20389;-66
2022/09/13 02:39:30;;;;;;;1999.90;999.90;;;16.90;99.90;;;;;;5101547;28;20158;-66
2022/09/13 02:42:03;;;;;;;1999.90;999.90;;;16.90;99.90;;;;;;5066505;28;20056;-66
2022/09/13 02:44:43;;;;;;;1999.90;999.90;;;16.90;99.90;;;;;;5072626;28;20044;-66
2022/09/13 02:47:15;;;;;;;1999.90;999.90;;;16.90;99.90;;;;;;5083414;28;20056;-66
2022/09/13 02:50:01;;;;;;;1999.90;999.90;;;17.00;99.90;;;;;;5074394;28;20055;-66
2022/09/13 02:52:49;;;;;;;1999.90;999.90;;;17.00;99.90;;;;;;5057050;28;20044;-66
2022/09/13 02:55:29;;;;;;;1999.90;999.90;;;17.00;99.90;;;;;;5072617;28;20063;-66
2022/09/13 02:58:18;;;;;;;1999.90;999.90;;;17.00;99.90;;;;;;5097637;28;20089;-66
2022/09/13 03:00:45;;;;;;;1999.90;999.90;;;17.10;99.90;;;;;;5087107;28;20056;-66
2022/09/13 03:03:13;;;;;;;1999.90;999.90;;;17.10;99.90;;;;;;5103231;28;20519;-66
2022/09/13 03:05:39;;;;;;;1999.90;999.90;;;17.10;99.90;;;;;;5067903;28;20491;-66
2022/09/13 03:08:08;;;;;;;1999.90;999.90;;;17.20;99.90;;;;;;5091633;28;20048;-66
2022/09/13 03:10:50;;;;;;;1999.90;999.90;;;17.20;99.90;;;;;;5073273;28;20076;-66
2022/09/13 03:13:49;;;;;;;1999.90;999.90;;;17.20;99.90;;;;;;5074232;28;20036;-66
2022/09/13 03:16:21;;;;;;;1999.90;999.90;;;17.20;99.90;;;;;;5073900;28;20114;-66
2022/09/13 03:18:47;;;;;;;1999.90;999.90;;;17.30;99.90;;;;;;5081968;28;20452;-66
2022/09/13 03:21:52;;;;;;;1999.90;999.90;;;17.20;99.90;;;;;;5066380;28;20039;-66
2022/09/13 03:24:25;;;;;;;1999.90;999.90;;;17.20;99.90;;;;;;5070641;28;20613;-66
2022/09/13 03:27:31;;;;;;;1999.90;999.90;;;17.10;99.90;;;;;;5056193;28;20069;-66
2022/09/13 03:30:10;;;;;;;1999.90;999.90;;;17.10;99.90;;;;;;5074800;28;20513;-66
2022/09/13 03:33:08;;;;;;;1999.90;999.90;;;17.10;99.90;;;;;;5088294;28;20736;-66
2022/09/13 03:35:48;;;;;;;1999.90;999.90;;;17.10;99.90;;;;;;5071595;28;20528;-66
2022/09/13 03:38:18;;;;;;;1999.90;999.90;;;17.00;99.90;;;;;;5064653;28;20044;-66
2022/09/13 03:40:55;;;;;;;1999.90;999.90;;;17.00;99.90;;;;;;5073523;28;20050;-66
2022/09/13 03:43:26;;;;;;;1999.90;999.90;;;17.00;99.90;;;;;;5083834;28;20092;-66
2022/09/13 03:45:55;;;;;;;1999.90;999.90;;;17.00;99.90;;;;;;5049621;28;20043;-66
2022/09/13 03:48:22;;;;;;;1999.90;999.90;;;17.00;99.90;;;;;;5083598;28;20089;-66
2022/09/13 03:50:48;;;;;;;1999.90;999.90;;;17.00;99.90;;;;;;5072756;28;20043;-66
2022/09/13 03:53:19;;;;;;;1999.90;999.90;;;17.00;99.90;;;;;;5072026;28;20062;-66
2022/09/13 03:55:45;;;;;;;1999.90;999.90;;;17.00;99.90;;;;;;5056915;28;20040;-66
2022/09/13 03:58:14;;;;;;;1999.90;999.90;;;17.00;99.90;;;;;;5072296;28;20040;-66
2022/09/13 04:00:40;;;;;;;1999.90;999.90;;;17.00;99.90;;;;;;5054103;28;20040;-66
2022/09/13 04:03:06;;;;;;;1999.90;999.90;;;16.90;99.90;;;;;;5063752;28;20456;-66
2022/09/13 04:05:33;;;;;;;1999.90;999.90;;;17.00;99.90;;;;;;5066804;28;20048;-66
2022/09/13 04:08:00;;;;;;;1999.90;999.90;;;17.00;99.90;;;;;;5070813;28;20047;-66
2022/09/13 04:10:26;;;;;;;1999.90;999.90;;;17.00;99.90;;;;;;5073619;28;20047;-66
2022/09/13 04:12:53;;;;;;;1999.90;999.90;;;17.00;99.90;;;;;;5075448;28;20035;-66
2022/09/13 04:15:20;;;;;;;1999.90;999.90;;;17.00;99.90;;;;;;5065070;28;20107;-66
2022/09/13 04:17:46;;;;;;;1999.90;999.90;;;17.00;99.90;;;;;;5054732;28;20044;-66
2022/09/13 04:20:12;;;;;;;1999.90;999.90;;;17.00;99.90;;;;;;5053118;28;20445;-66
2022/09/13 04:22:38;;;;;;;1999.90;999.90;;;17.00;99.90;;;;;;5080690;28;20101;-66
2022/09/13 04:25:04;;;;;;;1999.90;999.90;;;17.00;99.90;;;;;;5068800;28;20086;-66
2022/09/13 04:27:30;;;;;;;1999.90;999.90;;;17.00;99.90;;;;;;5095472;28;20036;-66
2022/09/13 04:29:55;;;;;;;1999.90;999.90;;;17.00;99.90;;;;;;5071727;28;20062;-66
2022/09/13 04:32:21;;;;;;;1999.90;999.90;;;17.00;99.90;;;;;;5091248;28;20059;-66
2022/09/13 04:34:46;;;;;;;1999.90;999.90;;;17.00;99.90;;;;;;5068682;28;20109;-66
2022/09/13 04:37:12;;;;;;;1999.90;999.90;;;17.00;99.90;;;;;;5054262;28;20047;-66
2022/09/13 04:39:38;;;;;;;1999.90;999.90;;;17.00;99.90;;;;;;5071180;28;20433;-66
2022/09/13 04:42:04;;;;;;;1999.90;999.90;;;17.00;99.90;;;;;;5072965;28;20050;-66
2022/09/13 04:44:30;;;;;;;1999.90;999.90;;;17.00;99.90;;;;;;5070245;28;20127;-66
2022/09/13 04:46:56;;;;;;;1999.90;999.90;;;16.90;99.90;;;;;;5081624;28;20048;-66
2022/09/13 04:49:21;;;;;;;1999.90;999.90;;;17.00;99.90;;;;;;5072601;28;20184;-66
2022/09/13 04:51:47;;;;;;;1999.90;999.90;;;17.00;99.90;;;;;;5065698;28;20036;-66
2022/09/13 04:54:13;;;;;;;1999.90;999.90;;;17.00;99.90;;;;;;5069513;28;20046;-66
2022/09/13 04:56:39;;;;;;;1999.90;999.90;;;16.90;99.90;;;;;;5077566;28;20048;-66
2022/09/13 04:59:05;;;;;;;1999.90;999.90;;;16.90;99.90;;;;;;5056393;28;20027;-66
2022/09/13 05:01:31;;;;;;;1999.90;999.90;;;16.90;99.90;;;;;;5056486;28;20046;-66
2022/09/13 05:03:56;;;;;;;1999.90;999.90;;;16.90;99.90;;;;;;5087279;28;20395;-66
2022/09/13 05:06:22;;;;;;;1999.90;999.90;;;16.90;99.90;;;;;;5052572;28;20043;-66
2022/09/13 05:08:54;;;;;;;1999.90;999.90;;;16.90;99.90;;;;;;5077473;28;20043;-66
2022/09/13 05:11:21;;;;;;;1999.90;999.90;;;16.80;99.90;;;;;;5074336;28;20071;-66
2022/09/13 05:13:53;;;;;;;1999.90;999.90;;;16.90;99.90;;;;;;5092669;28;20078;-66
2022/09/13 05:16:19;;;;;;;1999.90;999.90;;;16.80;99.90;;;;;;5088535;28;20036;-66
2022/09/13 05:18:45;;;;;;;1999.90;999.90;;;16.80;99.90;;;;;;5074478;28;20043;-66
2022/09/13 05:21:10;;;;;;;1999.90;999.90;;;16.80;99.90;;;;;;5049288;28;20047;-66
2022/09/13 05:23:37;;;;;;;1999.90;999.90;;;16.80;99.90;;;;;;5058238;28;20044;-66
2022/09/13 05:26:04;;;;;;;1999.90;999.90;;;16.80;99.90;;;;;;5083166;28;20154;-66
2022/09/13 05:28:32;;;;;;;1999.90;999.90;;;16.80;99.90;;;;;;5063799;28;20072;-66
2022/09/13 05:30:58;;;;;;;1999.90;999.90;;;16.80;99.90;;;;;;5071042;28;20052;-66
2022/09/13 05:33:25;;;;;;;1999.90;999.90;;;16.90;99.90;;;;;;5065767;28;20424;-66
2022/09/13 05:35:51;;;;;;;1999.90;999.90;;;16.90;99.90;;;;;;5070450;28;20046;-66
2022/09/13 05:38:17;;;;;;;1999.90;999.90;;;16.80;99.90;;;;;;5069332;28;20554;-66
2022/09/13 05:40:42;;;;;;;1999.90;999.90;;;16.80;99.90;;;;;;5092122;28;20545;-66
2022/09/13 05:43:09;;;;;;;1999.90;999.90;;;16.90;99.90;;;;;;5080157;28;20048;-66
2022/09/13 05:45:34;;;;;;;1999.90;999.90;;;16.90;99.90;;;;;;5084174;28;20471;-66
2022/09/13 05:48:00;;;;;;;1999.90;999.90;;;16.90;99.90;;;;;;5059714;28;20040;-66
2022/09/13 05:50:26;;;;;;;1999.90;999.90;;;16.90;99.90;;;;;;5064310;28;20037;-66
2022/09/13 05:52:55;;;;;;;1999.90;999.90;;;16.90;99.90;;;;;;5087330;28;20050;-66
2022/09/13 05:55:22;;;;;;;1999.90;999.90;;;16.90;99.90;;;;;;5052126;28;20032;-66
2022/09/13 05:57:48;;;;;;;1999.90;999.90;;;16.90;99.90;;;;;;5087112;28;20574;-66
2022/09/13 06:00:15;;;;;;;1999.90;999.90;;;16.90;99.90;;;;;;5084939;28;20040;-66
2022/09/13 06:02:41;;;;;;;1999.90;999.90;;;16.90;99.90;;;;;;5061745;28;20078;-66
2022/09/13 06:05:09;;;;;;;1999.90;999.90;;;16.90;99.90;;;;;;5069538;28;20047;-66
2022/09/13 06:07:35;;;;;;;1999.90;999.90;;;17.00;99.90;;;;;;5066741;28;20196;-66
2022/09/13 06:10:01;;;;;;;1999.90;999.90;;;17.00;99.90;;;;;;5058592;28;20106;-66
2022/09/13 06:12:26;;;;;;;1999.90;999.90;;;17.00;99.90;;;;;;5052509;28;20519;-66
2022/09/13 06:14:52;;;;;;;1999.90;999.90;;;17.10;99.90;;;;;;5069353;28;20040;-67
2022/09/13 06:17:17;;;;;;;1999.90;999.90;;;17.10;99.90;;;;;;5086842;28;20036;-66
2022/09/13 06:19:43;;;;;;;1999.90;999.90;;;17.10;99.90;;;;;;5052265;28;20040;-66
2022/09/13 06:22:09;;;;;;;1999.90;999.90;;;17.20;99.90;;;;;;5075257;28;20488;-66
2022/09/13 06:24:36;;;;;;;1999.90;999.90;;;17.20;99.90;;;;;;5064000;28;20051;-66
2022/09/13 06:27:02;;;;;;;1999.90;999.90;;;17.30;99.90;;;;;;5070626;28;20351;-66
2022/09/13 06:29:27;;;;;;;1999.90;999.90;;;17.30;99.90;;;;;;5077498;28;20054;-66
2022/09/13 06:31:53;;;;;;;1999.90;999.90;;;17.30;99.90;;;;;;5056745;28;20570;-66
2022/09/13 06:34:19;;;;;;;1999.90;999.90;;;17.40;99.90;;;;;;5087446;28;20139;-66
2022/09/13 06:36:45;;;;;;;1999.90;999.90;;;17.40;99.90;;;;;;5068903;28;20127;-66
2022/09/13 06:39:10;;;;;;;1999.90;999.90;;;17.50;99.90;;;;;;5064953;28;20036;-66
2022/09/13 06:41:37;;;;;;;1999.90;999.90;;;17.60;99.90;;;;;;5062728;28;20504;-66
2022/09/13 06:44:02;;;;;;;1999.90;999.90;;;17.60;99.90;;;;;;5087387;28;20044;-66
2022/09/13 06:46:32;;;;;;;1999.90;999.90;;;17.70;99.90;;;;;;5085902;28;20051;-66
2022/09/13 06:49:04;;;;;;;1999.90;999.90;;;17.70;99.90;;;;;;5093824;28;20364;-66
2022/09/13 06:51:31;;;;;;;1999.90;999.90;;;17.70;99.90;;;;;;5064647;28;20039;-66
2022/09/13 06:53:57;;;;;;;1999.90;999.90;;;17.80;99.90;;;;;;5065967;28;20036;-66
2022/09/13 06:56:31;;;;;;;1999.90;999.90;;;17.90;99.90;;;;;;5070961;28;20495;-66
2022/09/13 06:59:07;;;;;;;1999.90;999.90;;;18.00;99.90;;;;;;5072454;28;20054;-66
2022/09/13 07:01:38;;;;;;;1999.90;999.90;;;18.00;99.90;;;;;;5063757;28;20050;-66
2022/09/13 07:04:16;;;;;;;1999.90;999.90;;;18.10;99.90;;;;;;5086051;28;20040;-67
2022/09/13 07:06:44;;;;;;;1999.90;999.90;;;18.10;99.90;;;;;;5055949;28;20054;-67
2022/09/13 07:09:16;;;;;;;1999.90;999.90;;;18.10;99.90;;;;;;5090749;28;20055;-67
2022/09/13 07:11:42;;;;;;;;;;;18.10;99.90;;;;;;5091722;28;20052;-66
2022/09/13 07:14:11;;;;;;;1999.90;999.90;;;18.10;99.90;;;;;;5079247;28;20082;-66
2022/09/13 07:16:37;;;;;;;1999.90;999.90;;;18.10;99.90;;;;;;5055994;28;20040;-66
2022/09/13 07:19:05;;;;;;;1999.90;999.90;;;18.20;99.90;;;;;;5075120;28;20681;-66
2022/09/13 07:21:32;;;;;;;1999.90;999.90;;;18.20;99.90;;;;;;5054752;28;20326;-66
2022/09/13 07:23:58;;;;;;;1999.90;999.90;;;18.20;99.90;;;;;;5072437;28;20078;-66
2022/09/13 07:26:26;;;;;;;1999.90;999.90;;;18.20;99.90;;;;;;5101928;28;20048;-66
2022/09/13 07:28:54;;;;;;;1999.90;999.90;;;18.20;99.90;;;;;;5083714;28;20657;-67
2022/09/13 07:31:25;;;;;;;1999.90;999.90;;;18.10;99.90;;;;;;5098077;28;20055;-66
2022/09/13 07:33:56;;;;;;;1999.90;999.90;;;18.10;99.90;;;;;;5091910;28;20059;-66
2022/09/13 07:36:23;;;;;;;1999.90;999.90;;;18.00;99.90;;;;;;5101136;28;20450;-66
2022/09/13 07:38:48;;;;;;;1999.90;999.90;;;18.00;99.90;;;;;;5091665;28;20774;-66
2022/09/13 07:41:20;;;;;;;1999.90;999.90;;;17.90;99.90;;;;;;5069044;28;20037;-66
2022/09/13 07:43:46;;;;;;;1999.90;999.90;;;18.00;99.90;;;;;;5052854;28;20646;-66
2022/09/13 07:46:23;;;;;;;1999.90;999.90;;;18.00;99.90;;;;;;5066780;28;20043;-66
2022/09/13 07:48:52;;;;;;;1999.90;999.90;;;18.10;99.90;;;;;;5085500;28;20534;-66
2022/09/13 07:51:20;;;;;;;1999.90;999.90;;;18.20;99.90;;;;;;5071676;28;20089;-66
2022/09/13 07:53:48;;;;;;;1999.90;999.90;;;18.30;99.90;;;;;;5089393;28;20091;-66
2022/09/13 07:56:16;;;;;;;1999.90;999.90;;;18.30;99.90;;;;;;5066832;28;20045;-66
2022/09/13 07:58:43;;;;;;;1999.90;999.90;;;18.30;99.90;;;;;;5078790;28;20040;-66
2022/09/13 08:01:19;;;;;;;1999.90;999.90;;;18.30;99.90;;;;;;5075841;28;20495;-66
2022/09/13 08:03:53;;;;;;;1999.90;999.90;;;18.30;99.90;;;;;;5063627;28;20503;-66
2022/09/13 08:06:18;;;;;;;1999.90;999.90;;;18.40;99.90;;;;;;5084463;28;20043;-66
2022/09/13 08:08:44;;;;;;;1999.90;999.90;;;18.30;99.90;;;;;;5082673;28;20052;-66
2022/09/13 08:11:31;;;;;;;1999.90;999.90;;;18.30;99.90;;;;;;5086315;28;20043;-66
2022/09/13 08:13:58;;;;;;;1999.90;999.90;;;18.30;99.90;;;;;;5076355;28;20055;-66
2022/09/13 08:16:25;;;;;;;1999.90;999.90;;;18.40;99.90;;;;;;5092021;28;20035;-66
2022/09/13 08:18:53;;;;;;;1999.90;999.90;;;18.40;99.90;;;;;;5070221;28;20054;-66
2022/09/13 08:21:20;;;;;;;1999.90;999.90;;;18.40;99.90;;;;;;5061222;28;20440;-66
2022/09/13 08:23:45;;;;;;;1999.90;999.90;;;18.40;99.90;;;;;;5056398;28;20075;-66
2022/09/13 08:26:12;;;;;;;1999.90;999.90;;;18.40;99.90;;;;;;5077766;28;20487;-66
2022/09/13 08:28:39;;;;;;;1999.90;999.90;;;18.60;99.90;;;;;;5071253;28;20105;-66
2022/09/13 08:31:06;;;;;;;1999.90;999.90;;;18.70;99.90;;;;;;5096231;28;20043;-66
2022/09/13 08:33:32;;;;;;;1999.90;999.90;;;18.90;99.90;;;;;;5092993;28;20043;-65
2022/09/13 08:35:58;;;;;;;1999.90;999.90;;;19.10;99.90;;;;;;5077136;28;20459;-66
2022/09/13 08:38:23;;;;;;;1999.90;999.90;;;19.40;99.90;;;;;;5084152;28;20064;-66
2022/09/13 08:40:53;;;;;;;1999.90;999.90;;;19.60;99.90;;;;;;5088769;28;20040;-66
2022/09/13 08:43:40;;;;;;;1999.90;999.90;;;19.70;99.90;;;;;;5065619;28;20033;-66
2022/09/13 08:46:31;;;;;;;1999.90;999.90;;;19.90;99.90;;;;;;5058862;28;20105;-66
2022/09/13 08:49:18;;;;;;;1999.90;999.90;;;20.00;99.90;;;;;;5070225;28;20078;-66
2022/09/13 08:51:48;;;;;;;1999.90;999.90;;;20.40;99.90;;;;;;5082861;28;20111;-66
2022/09/13 08:54:15;;;;;;;1999.90;999.90;;;20.40;99.90;;;;;;5088082;28;20067;-66
2022/09/13 08:57:06;;;;;;;1999.90;999.90;;;20.60;99.90;;;;;;5070389;28;20464;-66
2022/09/13 09:00:16;;;;;;;1999.90;999.90;;;20.50;99.90;;;;;;5070635;28;20044;-66
2022/09/13 09:03:18;;;;;;;1999.90;999.90;;;20.20;99.90;;;;;;5087367;28;20036;-66
2022/09/13 09:05:48;;;;;;;1999.90;999.90;;;20.00;99.90;;;;;;5068142;28;20040;-66
2022/09/13 09:08:21;;;;;;;1999.90;999.90;;;20.30;99.90;;;;;;5082279;28;20078;-66
2022/09/13 09:10:47;;;;;;;;;;;20.50;99.90;;;;;;5084691;28;20604;-66
2022/09/13 09:13:16;;;;;;;1999.90;999.90;;;21.50;99.90;;;;;;5068043;28;20280;-66
2022/09/13 09:15:52;;;;;;;1999.90;999.90;;;22.20;99.90;;;;;;5047328;28;20059;-66
2022/09/13 09:18:27;;;;;;;1999.90;999.90;;;22.80;99.90;;;;;;5088293;28;20144;-67
2022/09/13 09:20:55;;;;;;;1999.90;999.90;;;23.30;99.90;;;;;;5058633;28;20045;-66
2022/09/13 09:23:26;;;;;;;1999.90;999.90;;;23.90;99.90;;;;;;5067290;28;20040;-66
2022/09/13 09:26:19;;;;;;;1999.90;999.90;;;24.20;99.90;;;;;;5087986;28;20114;-67
2022/09/13 09:28:57;;;;;;;1999.90;999.90;;;23.40;99.90;;;;;;5070354;28;20064;-66
2022/09/13 09:31:44;;;;;;;1999.90;999.90;;;22.80;99.90;;;;;;5087941;28;20079;-66
2022/09/13 09:34:22;;;;;;;1999.90;999.90;;;22.60;99.90;;;;;;5079079;28;20075;-67
2022/09/13 09:36:47;;;;;;;1999.90;999.90;;;23.00;99.90;;;;;;5069040;28;20066;-67
2022/09/13 09:39:15;;;;;;;1999.90;999.90;;;23.40;99.90;;;;;;5086434;28;20479;-66
2022/09/13 09:41:43;;;;;;;1999.90;999.90;;;23.70;99.90;;;;;;5087967;28;20079;-66
2022/09/13 09:44:26;;;;;;;1999.90;999.90;;;24.00;99.90;;;;;;5063719;28;20402;-66
2022/09/13 09:47:17;;;;;;;1999.90;999.90;;;23.30;99.90;;;;;;5069587;28;20052;-66
2022/09/13 09:50:08;;;;;;;1999.90;999.90;;;22.30;99.90;;;;;;5069349;28;20068;-66
2022/09/13 09:52:39;;;;;;;1999.90;999.90;;;21.60;99.90;;;;;;5087141;28;20415;-66
2022/09/13 09:55:16;;;;;;;1999.90;999.90;;;21.70;99.90;;;;;;5063740;28;20048;-67
2022/09/13 09:57:59;;;;;;;1999.90;999.90;;;22.30;99.90;;;;;;5039190;28;20051;-67
2022/09/13 10:00:32;;;;;;;1999.90;999.90;;;23.00;99.90;;;;;;5083441;28;20052;-66
2022/09/13 10:03:16;;;;;;;1999.90;999.90;;;23.40;99.90;;;;;;5069548;28;20047;-67
2022/09/13 10:05:43;;;;;;;1999.90;999.90;;;23.80;99.90;;;;;;5087058;28;20044;-66
2022/09/13 10:08:31;;;;;;;1999.90;999.90;;;23.60;99.90;;;;;;5044290;28;20387;-67
2022/09/13 10:10:59;;;;;;;1999.90;999.90;;;23.20;99.90;;;;;;5067003;28;20048;-67
2022/09/13 10:13:25;;;;;;;1999.90;999.90;;;22.80;99.90;;;;;;5052742;28;20051;-66
2022/09/13 10:16:00;;;;;;;1999.90;999.90;;;22.20;99.90;;;;;;5069274;28;20043;-67
2022/09/13 10:18:28;;;;;;;1999.90;999.90;;;21.70;99.90;;;;;;5062589;28;20032;-67
2022/09/13 10:21:16;;;;;;;1999.90;999.90;;;21.50;99.90;;;;;;5060342;28;20720;-66
2022/09/13 10:23:43;;;;;;;1999.90;999.90;;;21.50;99.90;;;;;;5045466;28;20055;-67
2022/09/13 10:26:12;;;;;;;1999.90;999.90;;;21.80;99.90;;;;;;5060366;28;20491;-67
2022/09/13 10:28:55;;;;;;;1999.90;999.90;;;22.30;99.90;;;;;;5056092;28;20094;-67
2022/09/13 10:31:28;;;;;;;1999.90;999.90;;;22.50;99.90;;;;;;5061598;28;20051;-66
2022/09/13 10:34:15;;;;;;;1999.90;999.90;;;22.80;99.90;;;;;;5064647;28;20093;-67
2022/09/13 10:37:20;;;;;;;1999.90;999.90;;;22.80;99.90;;;;;;5069569;28;20043;-67
2022/09/13 10:39:54;;;;;;;1999.90;999.90;;;22.90;99.90;;;;;;5039142;28;20535;-67
2022/09/13 10:42:22;;;;;;;1999.90;999.90;;;22.90;99.90;;;;;;5071332;28;20051;-66
2022/09/13 10:45:05;;;;;;;1999.90;999.90;;;22.90;99.90;;;;;;5089669;28;20039;-66
2022/09/13 10:47:46;;;;;;;1999.90;999.90;;;22.90;99.90;;;;;;5091191;28;20641;-67
2022/09/13 10:50:20;;;;;;;1999.90;999.90;;;23.10;99.90;;;;;;5094734;28;20043;-67
2022/09/13 10:52:50;;;;;;;1999.90;999.90;;;23.20;99.90;;;;;;5064606;28;20059;-66
2022/09/13 10:55:18;;;;;;;1999.90;999.90;;;22.90;99.90;;;;;;5087608;28;20071;-67
2022/09/13 10:57:53;;;;;;;1999.90;999.90;;;22.70;99.90;;;;;;5056132;28;20503;-67
2022/09/13 11:00:29;;;;;;;1999.90;999.90;;;22.60;99.90;;;;;;5073527;28;20414;-67
2022/09/13 11:03:23;;;;;;;1999.90;999.90;;;22.80;99.90;;;;;;5088757;28;20056;-66
2022/09/13 11:06:25;;;;;;;1999.90;999.90;;;22.90;99.90;;;;;;5051483;28;20078;-66
2022/09/13 11:08:56;;;;;;;1999.90;999.90;;;23.10;99.30;;;;;;5069509;28;20048;-66
2022/09/13 11:11:45;;;;;;;1999.90;999.90;;;23.40;99.90;;;;;;5087850;28;20165;-66
2022/09/13 11:14:22;;;;;;;1999.90;999.90;;;23.30;99.50;;;;;;5072889;28;20039;-66
2022/09/13 11:16:57;;;;;;;1999.90;999.90;;;23.00;99.90;;;;;;5053079;28;20080;-66
2022/09/13 11:19:47;;;;;;;1999.90;999.90;;;22.90;99.90;;;;;;5068941;28;20044;-67
2022/09/13 11:22:35;;;;;;;1999.90;999.90;;;22.60;99.90;;;;;;5056458;28;20147;-66
2022/09/13 11:25:25;;;;;;;1999.90;999.90;;;22.60;99.90;;;;;;5087091;28;20523;-66
2022/09/13 11:28:04;;;;;;;1999.90;999.90;;;22.40;99.90;;;;;;5067070;28;20062;-66
2022/09/13 11:30:39;;;;;;;1999.90;999.90;;;22.40;99.90;;;;;;5065484;28;20747;-66
2022/09/13 11:33:46;;;;;;;1999.90;999.90;;;22.50;99.90;;;;;;5067674;28;20048;-66
2022/09/13 11:36:41;;;;;;;1999.90;999.90;;;22.50;99.90;;;;;;5062294;28;20227;-67
2022/09/13 11:39:35;;;;;;;1999.90;999.90;;;22.60;99.90;;;;;;5066818;28;20036;-67
2022/09/13 11:42:10;;;;;;;1999.90;999.90;;;22.60;99.90;;;;;;5082272;28;20442;-67
2022/09/13 11:45:04;;;;;;;1999.90;999.90;;;22.60;99.90;;;;;;5065454;28;20131;-66
2022/09/13 11:47:48;;;;;;;1999.90;999.90;;;22.80;99.90;;;;;;5073385;28;20044;-67
2022/09/13 11:50:23;;;;;;;1999.90;999.90;;;23.10;99.90;;;;;;5058315;28;20036;-66
2022/09/13 11:53:04;;;;;;;1999.90;999.90;;;23.40;99.70;;;;;;5087049;28;20399;-66
2022/09/13 11:55:40;;;;;;;1999.90;999.90;;;23.40;99.90;;;;;;5067747;28;20486;-67
2022/09/13 11:58:20;;;;;;;1999.90;999.90;;;23.30;99.90;;;;;;5088815;28;20036;-66
2022/09/13 12:00:56;;;;;;;1999.90;999.90;;;23.50;99.90;;;;;;5064539;28;20538;-66
2022/09/13 12:03:26;;;;;;;1999.90;999.90;;;23.40;99.90;;;;;;5066535;28;20403;-66
2022/09/13 12:06:16;;;;;;;1999.90;999.90;;;22.90;99.90;;;;;;5065320;28;20580;-66
2022/09/13 12:08:47;;;;;;;1999.90;999.90;;;22.40;99.90;;;;;;5082254;28;20070;-66
2022/09/13 12:11:24;;;;;;;1999.90;999.90;;;22.50;99.90;;;;;;5085515;28;20040;-66
2022/09/13 12:14:18;;;;;;;1999.90;999.90;;;22.50;99.90;;;;;;5052632;28;20373;-66
2022/09/13 12:16:47;;;;;;;1999.90;999.90;;;22.60;99.90;;;;;;5072090;28;20071;-66
2022/09/13 12:19:21;;;;;;;1999.90;999.90;;;22.60;99.90;;;;;;5060177;28;20049;-67
2022/09/13 12:21:49;;;;;;;1999.90;999.90;;;22.50;99.90;;;;;;5075151;28;20040;-66
2022/09/13 12:24:51;;;;;;;1999.90;999.90;;;22.30;99.90;;;;;;5061270;28;20054;-66
2022/09/13 12:27:28;;;;;;;1999.90;999.90;;;22.20;99.90;;;;;;5071349;28;20040;-66
2022/09/13 12:29:59;;;;;;;1999.90;999.90;;;22.30;99.90;;;;;;5065986;28;20061;-66
2022/09/13 12:32:25;;;;;;;1999.90;999.90;;;22.20;99.90;;;;;;5085398;28;20232;-66